Palms, Michigan
Current Conditions -  °F | °C
As of 12:38 PM on Tuesday 21 Oct 2014 (Local Time) from KBAX Reporting Station
Overcast Overcast  
Wind Chill: 37°   Ceiling: 1600
Heat Index: 44°   Visibility: 10mi
Dew Point: 40°   Wind: 12mph
Humidity: 88%   Direction: 360°N
Pressure: 30.08"   Gusts: 18mph
Location:  43.62°N, 82.69°W
Report Text: KBAX 211638Z AUTO 36010G16KT 10SM OVC016 06/05 A3008 RMK AO2 T00640046
Loading
Personal Weather Stations






























Interactive Weather Map
Tropical Storm Tracking
New forecast layout! Learn more

10-Day Weather Forecast

Advertisements
Track Severe Weather on mobile